Terminal Aerodrome Forecast
Issued by NWS Cleveland, OH

Home | Current Version | Previous Version | Graphics & Text | Print | Product List | Glossary On
Versions: 1 2 3 4 5 6 7 8 9 10 11 12 13 14 15
000
FTUS41 KCLE 271723
TAFERI
TAF
KERI 271723Z 2718/2818 31007KT P6SM SCT025 BKN035
      TEMPO 2718/2720 BKN025
     FM272300 29005KT P6SM SCT040
     FM280300 19005KT P6SM SKC
     FM281600 33008KT P6SM FEW040=

USA.gov is the U.S. government's official web portal to all federal, state and local government web resources and services.